Time;durP1;ratioP1;P1;durP2;ratioP2;P2;SDS_P1;SDS_P2;PMS_P1;PMS_P2;Temp;Humidity;BMP_temperature;BMP_pressure;BME280_temperature;BME280_humidity;BME280_pressure;Samples;Min_cycle;Max_cycle;Signal;HPM_P1;HPM_P2
2021/01/27 00:00:56;;;;;;;15.48;10.57;;;0.30;99.90;;;;;;5085303;28;20035;-75
2021/01/27 00:03:22;;;;;;;16.65;9.70;;;0.20;99.90;;;;;;5075727;28;20032;-75
2021/01/27 00:05:50;;;;;;;16.48;9.73;;;0.30;99.90;;;;;;5091178;28;20027;-75
2021/01/27 00:08:17;;;;;;;14.70;8.73;;;0.40;99.90;;;;;;5074265;28;20389;-75
2021/01/27 00:10:44;;;;;;;17.67;9.15;;;0.40;99.90;;;;;;5088309;28;20410;-76
2021/01/27 00:13:15;;;;;;;18.35;8.93;;;0.40;99.90;;;;;;5083995;28;20047;-75
2021/01/27 00:15:42;;;;;;;15.05;9.07;;;0.50;99.90;;;;;;5074649;28;20044;-75
2021/01/27 00:18:11;;;;;;;16.10;8.88;;;0.50;99.90;;;;;;5074105;28;20134;-75
2021/01/27 00:20:37;;;;;;;14.95;9.55;;;0.50;99.90;;;;;;5074454;28;20033;-75
2021/01/27 00:23:04;;;;;;;12.85;9.10;;;0.50;99.90;;;;;;5073816;28;20043;-74
2021/01/27 00:25:32;;;;;;;13.23;8.20;;;0.50;99.90;;;;;;5074318;28;20033;-74
2021/01/27 00:27:59;;;;;;;13.52;8.20;;;0.50;99.90;;;;;;5075172;28;20039;-75
2021/01/27 00:30:29;;;;;;;17.13;8.55;;;0.50;99.90;;;;;;5074136;28;20043;-76
2021/01/27 00:32:57;;;;;;;16.23;8.45;;;0.40;99.90;;;;;;5074000;28;20505;-75
2021/01/27 00:35:27;;;;;;;16.90;7.90;;;0.40;99.90;;;;;;5080043;28;20040;-75
2021/01/27 00:37:54;;;;;;;13.35;8.02;;;0.30;99.90;;;;;;5093084;28;20036;-75
2021/01/27 00:40:21;;;;;;;11.63;7.05;;;0.30;99.90;;;;;;5085300;28;20099;-75
2021/01/27 00:42:48;;;;;;;14.02;7.72;;;0.30;99.90;;;;;;5074001;28;20029;-75
2021/01/27 00:45:15;;;;;;;12.85;6.80;;;0.30;99.90;;;;;;5084029;28;20043;-74
2021/01/27 00:47:41;;;;;;;13.30;8.32;;;0.30;99.90;;;;;;5086498;28;20039;-74
2021/01/27 00:50:09;;;;;;;13.68;7.00;;;0.30;99.90;;;;;;5077057;28;20028;-74
2021/01/27 00:52:36;;;;;;;15.63;6.35;;;0.30;99.90;;;;;;5089682;28;20052;-74
2021/01/27 00:55:13;;;;;;;12.18;6.78;;;0.40;99.90;;;;;;5081116;28;20051;-73
2021/01/27 00:57:40;;;;;;;10.50;6.60;;;0.40;99.90;;;;;;5086389;28;20049;-74
2021/01/27 01:00:19;;;;;;;17.83;7.53;;;0.40;99.90;;;;;;5072997;28;20028;-74
2021/01/27 01:02:46;;;;;;;11.00;6.68;;;0.30;99.90;;;;;;5073855;28;20055;-75
2021/01/27 01:05:15;;;;;;;9.82;5.95;;;0.30;99.90;;;;;;5073278;28;20044;-74
2021/01/27 01:07:46;;;;;;;11.23;6.65;;;0.20;99.90;;;;;;5073544;28;20031;-75
2021/01/27 01:10:26;;;;;;;14.65;7.60;;;0.10;99.90;;;;;;5072028;28;20039;-75
2021/01/27 01:12:52;;;;;;;15.70;7.13;;;0.10;99.90;;;;;;5073397;28;20458;-76
2021/01/27 01:15:20;;;;;;;12.48;6.20;;;0.10;99.90;;;;;;5089187;28;20043;-76
2021/01/27 01:17:47;;;;;;;11.38;6.80;;;0.10;99.90;;;;;;5079056;28;20052;-74
2021/01/27 01:20:16;;;;;;;12.85;6.45;;;0.20;99.90;;;;;;5072811;28;20060;-74
2021/01/27 01:22:48;;;;;;;15.88;7.55;;;0.20;99.90;;;;;;5072703;28;20045;-74
2021/01/27 01:25:16;;;;;;;11.45;7.03;;;0.20;99.90;;;;;;5080359;28;20036;-74
2021/01/27 01:27:44;;;;;;;16.00;6.82;;;0.20;99.90;;;;;;5077399;28;20024;-73
2021/01/27 01:30:32;;;;;;;14.02;8.35;;;0.30;99.90;;;;;;5079726;28;20048;-74
2021/01/27 01:33:07;;;;;;;11.10;6.53;;;0.30;99.90;;;;;;5079916;28;20048;-75
2021/01/27 01:35:34;;;;;;;13.15;7.10;;;0.40;99.90;;;;;;5088212;28;20052;-74
2021/01/27 01:38:01;;;;;;;13.48;6.68;;;0.40;99.90;;;;;;5083496;28;20057;-75
2021/01/27 01:40:33;;;;;;;12.55;7.15;;;0.40;99.90;;;;;;5072505;28;20040;-74
2021/01/27 01:43:20;;;;;;;10.30;6.63;;;0.50;99.90;;;;;;5072881;28;20021;-76
2021/01/27 01:45:56;;;;;;;15.02;6.35;;;0.50;99.90;;;;;;5072453;28;20032;-75
2021/01/27 01:48:34;;;;;;;12.38;6.95;;;0.50;99.90;;;;;;5072322;28;20047;-75
2021/01/27 01:51:05;;;;;;;12.07;6.43;;;0.40;99.90;;;;;;5072803;28;20039;-75
2021/01/27 01:53:31;;;;;;;10.25;6.47;;;0.40;99.90;;;;;;5072664;28;20028;-76
2021/01/27 01:56:01;;;;;;;13.10;6.32;;;0.50;99.90;;;;;;5076677;28;20035;-76
2021/01/27 01:58:28;;;;;;;14.30;7.03;;;0.50;99.90;;;;;;5089941;28;20068;-75
2021/01/27 02:00:58;;;;;;;12.20;6.68;;;0.50;99.90;;;;;;5072277;28;20036;-75
2021/01/27 02:03:28;;;;;;;12.43;7.95;;;0.40;99.90;;;;;;5072039;28;20032;-75
2021/01/27 02:05:57;;;;;;;11.05;6.85;;;0.50;99.90;;;;;;5071985;28;20032;-74
2021/01/27 02:08:25;;;;;;;14.50;7.22;;;0.50;99.90;;;;;;5089555;28;20024;-75
2021/01/27 02:10:51;;;;;;;14.13;7.28;;;0.60;99.90;;;;;;5080806;28;20032;-75
2021/01/27 02:13:42;;;;;;;15.50;6.47;;;0.60;99.90;;;;;;5082639;28;20461;-75
2021/01/27 02:16:29;;;;;;;14.07;6.70;;;0.60;99.90;;;;;;5084386;28;20036;-75
2021/01/27 02:19:23;;;;;;;10.93;6.30;;;0.60;99.90;;;;;;5075473;28;20032;-76
2021/01/27 02:22:08;;;;;;;11.13;6.15;;;0.60;99.90;;;;;;5071890;28;20035;-75
2021/01/27 02:25:07;;;;;;;9.38;6.00;;;0.60;99.90;;;;;;5072224;28;20035;-76
2021/01/27 02:27:43;;;;;;;12.32;6.43;;;0.60;99.90;;;;;;5072573;28;20047;-75
2021/01/27 02:30:46;;;;;;;17.77;7.10;;;0.50;99.90;;;;;;5071686;28;20039;-74
2021/01/27 02:33:30;;;;;;;16.00;7.28;;;0.60;99.90;;;;;;5078158;28;20121;-74
2021/01/27 02:36:15;;;;;;;13.00;6.82;;;0.60;99.90;;;;;;5076524;28;20040;-73
2021/01/27 02:39:00;;;;;;;12.02;6.22;;;0.50;99.90;;;;;;5072195;28;20047;-74
2021/01/27 02:41:43;;;;;;;16.90;7.20;;;0.60;99.90;;;;;;5085606;28;20397;-74
2021/01/27 02:44:15;;;;;;;12.90;5.80;;;0.60;99.90;;;;;;5071934;28;20470;-74
2021/01/27 02:46:48;;;;;;;13.13;5.05;;;0.60;99.90;;;;;;5072053;28;20374;-75
2021/01/27 02:49:42;;;;;;;11.07;6.18;;;0.60;99.90;;;;;;5071618;28;20039;-74
2021/01/27 02:52:11;;;;;;;10.35;5.60;;;0.60;99.90;;;;;;5086979;28;20035;-74
2021/01/27 02:54:51;;;;;;;9.40;5.72;;;0.50;99.90;;;;;;5071772;28;20040;-74
2021/01/27 02:57:29;;;;;;;9.52;5.25;;;0.50;99.90;;;;;;5079220;28;20035;-75
2021/01/27 03:00:08;;;;;;;10.60;5.80;;;0.50;99.90;;;;;;5081483;28;20548;-75
2021/01/27 03:03:10;;;;;;;10.80;5.45;;;0.40;99.90;;;;;;5084792;28;20039;-74
2021/01/27 03:05:50;;;;;;;48.38;22.35;;;0.40;99.90;;;;;;5069938;28;20056;-75
2021/01/27 03:08:29;;;;;;;46.20;21.30;;;0.50;99.90;;;;;;5085124;28;20037;-75
2021/01/27 03:11:01;;;;;;;54.20;24.17;;;0.50;99.90;;;;;;5071330;28;20499;-74
2021/01/27 03:13:27;;;;;;;148.75;62.95;;;0.50;99.90;;;;;;5074283;28;20043;-75
2021/01/27 03:15:58;;;;;;;167.98;66.50;;;0.50;99.90;;;;;;5077956;28;20044;-74
2021/01/27 03:18:29;;;;;;;110.57;47.28;;;0.60;99.90;;;;;;5071324;28;20465;-75
2021/01/27 03:21:03;;;;;;;29.95;15.63;;;0.60;99.90;;;;;;5071870;28;20028;-75
2021/01/27 03:23:41;;;;;;;99.07;41.70;;;0.60;99.90;;;;;;5071431;28;20393;-74
2021/01/27 03:26:31;;;;;;;76.85;32.92;;;0.60;99.90;;;;;;5071220;28;20028;-74
2021/01/27 03:29:34;;;;;;;67.05;28.75;;;0.60;99.90;;;;;;5071432;28;20036;-75
2021/01/27 03:32:06;;;;;;;82.63;34.00;;;0.60;99.90;;;;;;5071282;28;20048;-75
2021/01/27 03:34:40;;;;;;;57.60;26.58;;;0.60;99.90;;;;;;5087938;28;20151;-74
2021/01/27 03:37:14;;;;;;;99.30;40.80;;;0.60;99.90;;;;;;5078777;28;20047;-74
2021/01/27 03:39:45;;;;;;;120.00;43.83;;;0.60;99.90;;;;;;5074841;28;20051;-74
2021/01/27 03:42:19;;;;;;;47.55;21.40;;;0.60;99.90;;;;;;5084863;28;20389;-74
2021/01/27 03:44:53;;;;;;;28.27;13.55;;;0.60;99.90;;;;;;5075131;28;20039;-74
2021/01/27 03:47:28;;;;;;;26.00;13.15;;;0.60;99.90;;;;;;5074284;28;20047;-74
2021/01/27 03:50:16;;;;;;;16.88;9.43;;;0.60;99.90;;;;;;5082528;28;20036;-74
2021/01/27 03:52:50;;;;;;;11.23;7.60;;;0.60;99.90;;;;;;5077665;28;20059;-74
2021/01/27 03:55:35;;;;;;;15.18;8.00;;;0.60;99.90;;;;;;5080667;28;20040;-74
2021/01/27 03:58:24;;;;;;;65.03;26.83;;;0.70;99.90;;;;;;5079518;28;20043;-74
2021/01/27 04:00:58;;;;;;;19.17;10.48;;;0.60;99.90;;;;;;5074329;28;20031;-74
2021/01/27 04:03:24;;;;;;;22.00;10.63;;;0.60;99.90;;;;;;5074690;28;20040;-74
2021/01/27 04:05:51;;;;;;;13.40;6.90;;;0.60;99.90;;;;;;5074162;28;20032;-73
2021/01/27 04:08:17;;;;;;;17.38;8.45;;;0.70;99.90;;;;;;5073021;28;20036;-74
2021/01/27 04:10:43;;;;;;;30.15;16.17;;;0.70;99.90;;;;;;5074711;28;20481;-74
2021/01/27 04:13:09;;;;;;;33.08;16.00;;;0.70;99.90;;;;;;5073766;28;20032;-74
2021/01/27 04:15:35;;;;;;;13.63;8.70;;;0.70;99.90;;;;;;5074520;28;20492;-74
2021/01/27 04:18:02;;;;;;;15.88;9.35;;;0.70;99.90;;;;;;5074680;28;20048;-74
2021/01/27 04:20:29;;;;;;;18.90;10.45;;;0.70;99.90;;;;;;5089962;28;20048;-73
2021/01/27 04:22:55;;;;;;;33.50;16.92;;;0.70;99.90;;;;;;5074367;28;20493;-74
2021/01/27 04:25:21;;;;;;;11.13;6.35;;;0.80;99.90;;;;;;5073640;28;20036;-74
2021/01/27 04:27:48;;;;;;;31.92;15.95;;;0.70;99.90;;;;;;5074319;28;20441;-74
2021/01/27 04:30:29;;;;;;;28.67;15.05;;;0.80;99.90;;;;;;5073444;28;20040;-73
2021/01/27 04:32:57;;;;;;;11.93;7.47;;;0.70;99.90;;;;;;5074054;28;20049;-73
2021/01/27 04:35:23;;;;;;;16.15;8.57;;;0.70;99.90;;;;;;5091802;28;20031;-73
2021/01/27 04:37:50;;;;;;;22.02;12.27;;;0.70;99.90;;;;;;5082198;28;20051;-74
2021/01/27 04:40:41;;;;;;;23.02;12.45;;;0.60;99.90;;;;;;5087096;28;20478;-74
2021/01/27 04:43:30;;;;;;;12.23;7.10;;;0.60;99.90;;;;;;5079118;28;20500;-74
2021/01/27 04:46:08;;;;;;;11.02;6.38;;;0.60;99.90;;;;;;5074679;28;20052;-74
2021/01/27 04:48:59;;;;;;;14.45;8.15;;;0.60;99.90;;;;;;5082480;28;20029;-74
2021/01/27 04:51:42;;;;;;;28.42;14.05;;;0.60;99.90;;;;;;5083069;28;20036;-74
2021/01/27 04:54:29;;;;;;;50.60;28.50;;;0.60;99.90;;;;;;5076838;28;20033;-74
2021/01/27 04:57:26;;;;;;;29.25;16.25;;;0.60;99.90;;;;;;5082819;28;20052;-74
2021/01/27 04:59:58;;;;;;;15.50;8.55;;;0.60;99.90;;;;;;5092834;28;20024;-75
2021/01/27 05:02:34;;;;;;;18.58;8.15;;;0.60;99.90;;;;;;5073355;28;20044;-74
2021/01/27 05:05:17;;;;;;;18.80;10.45;;;0.60;99.90;;;;;;5073624;28;20051;-74
2021/01/27 05:07:43;;;;;;;14.65;8.50;;;0.50;99.90;;;;;;5073552;28;20103;-74
2021/01/27 05:10:14;;;;;;;16.00;9.27;;;0.50;99.90;;;;;;5073089;28;20029;-74
2021/01/27 05:12:59;;;;;;;25.55;13.07;;;0.60;99.90;;;;;;5073379;28;20036;-74
2021/01/27 05:15:25;;;;;;;18.10;8.43;;;0.50;99.90;;;;;;5073036;28;20045;-75
2021/01/27 05:17:52;;;;;;;19.95;8.50;;;0.60;99.90;;;;;;5080645;28;20037;-75
2021/01/27 05:20:20;;;;;;;14.80;8.93;;;0.60;99.90;;;;;;5078591;28;20051;-75
2021/01/27 05:22:46;;;;;;;29.17;15.80;;;0.70;99.90;;;;;;5091529;28;20055;-76
2021/01/27 05:25:27;;;;;;;12.02;8.13;;;0.70;99.90;;;;;;5074958;28;20024;-75
2021/01/27 05:27:57;;;;;;;44.47;24.58;;;0.70;99.90;;;;;;5080397;28;20024;-75
2021/01/27 05:30:32;;;;;;;40.40;23.10;;;0.70;99.90;;;;;;5081984;28;20044;-75
2021/01/27 05:32:58;;;;;;;86.80;44.95;;;0.70;99.90;;;;;;5076410;28;20045;-75
2021/01/27 05:35:38;;;;;;;17.27;10.80;;;0.70;99.90;;;;;;5076969;28;20044;-75
2021/01/27 05:38:30;;;;;;;20.48;11.73;;;0.70;99.90;;;;;;5092343;28;20026;-75
2021/01/27 05:41:04;;;;;;;;;;;0.70;99.90;;;;;;5084788;28;20024;-75
2021/01/27 05:43:31;;;;;;;15.93;9.40;;;0.70;99.90;;;;;;5072316;28;19923;-74
2021/01/27 05:46:10;;;;;;;28.92;17.50;;;0.80;99.90;;;;;;5073261;28;20044;-75
2021/01/27 05:48:48;;;;;;;24.73;13.05;;;0.80;99.90;;;;;;5072635;28;20359;-75
2021/01/27 05:51:30;;;;;;;25.08;14.82;;;0.80;99.90;;;;;;5081544;28;20347;-72
2021/01/27 05:53:57;;;;;;;48.05;25.85;;;0.80;99.90;;;;;;5072637;28;20038;-75
2021/01/27 05:56:25;;;;;;;40.03;19.33;;;0.80;99.90;;;;;;5071521;28;20041;-75
2021/01/27 05:58:54;;;;;;;38.17;20.20;;;0.70;99.90;;;;;;5074743;28;20048;-76
2021/01/27 06:01:32;;;;;;;24.50;15.27;;;0.80;99.90;;;;;;5086108;28;20397;-76
2021/01/27 06:04:10;;;;;;;43.28;24.98;;;0.80;99.90;;;;;;5081826;28;20070;-76
2021/01/27 06:06:38;;;;;;;55.83;28.60;;;0.80;99.90;;;;;;5072505;28;20039;-75
2021/01/27 06:09:06;;;;;;;21.90;11.98;;;0.80;99.90;;;;;;5075364;28;20035;-75
2021/01/27 06:11:33;;;;;;;42.22;20.77;;;0.80;99.90;;;;;;5078430;28;20047;-74
2021/01/27 06:14:17;;;;;;;23.67;13.48;;;0.80;99.90;;;;;;5072484;28;20021;-74
2021/01/27 06:16:45;;;;;;;30.00;15.35;;;0.80;99.90;;;;;;5071903;28;20051;-74
2021/01/27 06:19:19;;;;;;;46.40;23.13;;;0.80;99.90;;;;;;5072112;28;20036;-75
2021/01/27 06:22:04;;;;;;;14.57;9.45;;;0.80;99.90;;;;;;5071894;28;20039;-76
2021/01/27 06:24:48;;;;;;;19.48;9.82;;;0.80;99.90;;;;;;5072030;28;20031;-76
2021/01/27 06:27:42;;;;;;;159.68;62.10;;;0.90;99.90;;;;;;5070590;28;20040;-75
2021/01/27 06:30:37;;;;;;;107.95;44.90;;;0.80;99.90;;;;;;5071324;28;20373;-75
2021/01/27 06:33:44;;;;;;;23.20;11.82;;;0.80;99.90;;;;;;5071896;28;20068;-75
2021/01/27 06:36:32;;;;;;;63.47;29.30;;;0.80;99.90;;;;;;5086581;28;20035;-75
2021/01/27 06:39:32;;;;;;;43.92;18.95;;;0.80;99.90;;;;;;5084414;28;20052;-76
2021/01/27 06:42:06;;;;;;;27.38;13.98;;;0.80;99.90;;;;;;5085833;28;20028;-76
2021/01/27 06:44:51;;;;;;;52.00;23.10;;;0.90;99.90;;;;;;5079688;28;20077;-76
2021/01/27 06:47:31;;;;;;;77.53;32.45;;;0.90;99.90;;;;;;5071787;28;20489;-75
2021/01/27 06:50:30;;;;;;;79.80;37.00;;;0.90;99.90;;;;;;5072143;28;20028;-75
2021/01/27 06:53:16;;;;;;;42.10;22.92;;;0.90;99.90;;;;;;5071791;28;20049;-76
2021/01/27 06:56:07;;;;;;;17.33;9.82;;;1.00;99.90;;;;;;5071882;28;20041;-76
2021/01/27 06:58:42;;;;;;;18.00;9.87;;;1.00;99.90;;;;;;5071568;28;20048;-76
2021/01/27 07:01:32;;;;;;;49.08;24.33;;;1.00;99.90;;;;;;5071087;28;20128;-76
2021/01/27 07:04:15;;;;;;;15.57;6.77;;;1.10;99.90;;;;;;5071547;28;20060;-77
2021/01/27 07:06:47;;;;;;;46.08;19.58;;;1.10;99.90;;;;;;5058894;28;20474;-78
2021/01/27 07:09:23;;;;;;;19.55;9.40;;;1.20;99.90;;;;;;5075695;28;20024;-77
2021/01/27 07:12:17;;;;;;;22.73;11.88;;;1.20;99.90;;;;;;5075798;28;20039;-77
2021/01/27 07:15:03;;;;;;;16.35;9.43;;;1.20;99.90;;;;;;5086611;28;20024;-75
2021/01/27 07:17:59;;;;;;;31.20;15.43;;;1.10;99.90;;;;;;5090082;28;20496;-76
2021/01/27 07:20:54;;;;;;;32.58;17.23;;;1.10;99.90;;;;;;5084015;28;20040;-75
2021/01/27 07:23:20;;;;;;;16.52;9.43;;;1.10;99.90;;;;;;5074224;28;20045;-77
2021/01/27 07:26:20;;;;;;;30.60;16.75;;;1.00;99.90;;;;;;5091549;28;20370;-78
2021/01/27 07:28:58;;;;;;;17.27;11.23;;;1.00;99.90;;;;;;5075639;28;20037;-77
2021/01/27 07:31:51;;;;;;;18.38;10.63;;;1.00;99.90;;;;;;5074303;28;20048;-76
2021/01/27 07:34:41;;;;;;;25.70;13.68;;;1.00;99.90;;;;;;5074925;28;20040;-76
2021/01/27 07:37:25;;;;;;;33.58;18.23;;;0.90;99.90;;;;;;5076292;28;20041;-76
2021/01/27 07:40:35;;;;;;;19.20;10.63;;;0.90;99.90;;;;;;5095658;28;20363;-76
2021/01/27 07:43:21;;;;;;;18.00;9.02;;;0.90;99.90;;;;;;5012415;28;20438;-76
2021/01/27 07:45:52;;;;;;;18.35;10.07;;;0.90;99.90;;;;;;5012336;28;20046;-76
2021/01/27 07:48:47;;;;;;;17.17;9.40;;;0.90;99.90;;;;;;5013079;28;20042;-76
2021/01/27 07:51:22;;;;;;;15.77;8.07;;;0.90;99.90;;;;;;5011980;28;20565;-76
2021/01/27 07:54:20;;;;;;;16.10;8.50;;;0.90;99.90;;;;;;5012249;28;20042;-76
2021/01/27 07:57:17;;;;;;;15.35;8.10;;;0.90;99.90;;;;;;5010968;28;20042;-76
2021/01/27 08:00:19;;;;;;;14.63;9.15;;;0.80;99.90;;;;;;5000636;28;20050;-76
2021/01/27 08:02:58;;;;;;;16.17;9.73;;;0.80;99.90;;;;;;5011988;28;20053;-76
2021/01/27 08:05:25;;;;;;;19.20;9.85;;;0.80;99.90;;;;;;5010328;28;20049;-76
2021/01/27 08:08:10;;;;;;;20.08;10.50;;;0.80;99.90;;;;;;5012274;28;20510;-76
2021/01/27 08:10:38;;;;;;;23.48;11.48;;;0.90;99.90;;;;;;5012013;28;20042;-76
2021/01/27 08:13:06;;;;;;;21.17;11.65;;;0.80;99.90;;;;;;5025520;28;20474;-76
2021/01/27 08:15:32;;;;;;;18.90;10.63;;;0.90;99.90;;;;;;5081201;28;20032;-77
2021/01/27 08:18:11;;;;;;;18.88;11.63;;;0.90;99.90;;;;;;5087138;28;20032;-75
2021/01/27 08:20:39;;;;;;;25.90;16.63;;;0.90;99.90;;;;;;5073785;28;20036;-75
2021/01/27 08:23:09;;;;;;;20.90;14.15;;;0.90;99.90;;;;;;5074293;28;20039;-75
2021/01/27 08:25:56;;;;;;;17.00;10.95;;;0.80;99.90;;;;;;5074318;28;20033;-76
2021/01/27 08:28:37;;;;;;;20.48;12.05;;;0.80;99.90;;;;;;5073760;28;20139;-75
2021/01/27 08:31:09;;;;;;;18.88;11.02;;;0.80;99.90;;;;;;5073902;28;20381;-76
2021/01/27 08:33:47;;;;;;;17.02;10.05;;;0.70;99.90;;;;;;5073684;28;20421;-76
2021/01/27 08:36:41;;;;;;;16.52;10.98;;;0.70;99.90;;;;;;5073137;28;20044;-76
2021/01/27 08:39:21;;;;;;;19.02;11.57;;;0.80;99.90;;;;;;5074178;28;20047;-76
2021/01/27 08:42:20;;;;;;;20.27;10.57;;;0.70;99.90;;;;;;5074215;28;20039;-76
2021/01/27 08:44:47;;;;;;;20.38;11.20;;;0.70;99.90;;;;;;5073975;28;20036;-75
2021/01/27 08:47:17;;;;;;;20.80;10.88;;;0.70;99.90;;;;;;5073642;28;20028;-76
2021/01/27 08:49:54;;;;;;;19.75;12.70;;;0.70;99.90;;;;;;5073525;28;20032;-77
2021/01/27 08:52:20;;;;;;;20.42;12.15;;;0.70;99.90;;;;;;5073360;28;20028;-77
2021/01/27 08:54:50;;;;;;;23.80;13.55;;;0.70;99.90;;;;;;5073865;28;20036;-78
2021/01/27 08:57:33;;;;;;;21.65;13.52;;;0.70;99.90;;;;;;5084009;28;20059;-78
2021/01/27 09:00:21;;;;;;;18.88;12.25;;;0.70;99.90;;;;;;5079443;28;20045;-77
2021/01/27 09:02:49;;;;;;;23.40;13.73;;;0.70;99.90;;;;;;5073912;28;20039;-78
2021/01/27 09:05:18;;;;;;;20.38;11.90;;;0.70;99.90;;;;;;5092346;28;20039;-77
2021/01/27 09:07:51;;;;;;;26.42;13.60;;;0.70;99.90;;;;;;5075388;28;20059;-78
2021/01/27 09:10:19;;;;;;;21.65;13.43;;;0.70;99.90;;;;;;5075876;28;20040;-78
2021/01/27 09:12:46;;;;;;;21.40;12.05;;;0.70;99.90;;;;;;5079918;28;20462;-77
2021/01/27 09:15:23;;;;;;;20.90;12.10;;;0.60;99.90;;;;;;5088789;28;20025;-76
2021/01/27 09:17:50;;;;;;;19.15;12.15;;;0.60;99.90;;;;;;5073535;28;20053;-78
2021/01/27 09:20:23;;;;;;;22.60;12.73;;;0.70;99.90;;;;;;5084259;28;20386;-77
2021/01/27 09:22:59;;;;;;;22.20;13.68;;;0.60;99.90;;;;;;5081715;28;20032;-78
2021/01/27 09:25:27;;;;;;;22.73;12.20;;;0.70;99.90;;;;;;5072631;28;20032;-77
2021/01/27 09:28:05;;;;;;;20.23;12.25;;;0.60;99.90;;;;;;5073652;28;20031;-79
2021/01/27 09:30:32;;;;;;;22.30;13.75;;;0.60;99.90;;;;;;5072048;28;20033;-78
2021/01/27 09:33:14;;;;;;;21.92;12.93;;;0.60;99.90;;;;;;5072506;28;20063;-78
2021/01/27 09:35:42;;;;;;;22.50;12.82;;;0.70;99.90;;;;;;5073119;28;20036;-78
2021/01/27 09:38:18;;;;;;;27.50;14.23;;;0.70;99.90;;;;;;5088006;28;20055;-78
2021/01/27 09:41:01;;;;;;;22.50;13.13;;;0.60;99.90;;;;;;5079323;28;20051;-79
2021/01/27 09:43:38;;;;;;;25.27;13.63;;;0.60;99.90;;;;;;5082107;28;20047;-78
2021/01/27 09:46:40;;;;;;;25.17;14.00;;;0.60;99.90;;;;;;5078123;28;20508;-78
2021/01/27 09:49:13;;;;;;;24.60;11.82;;;0.60;99.90;;;;;;5010626;28;20487;-79
2021/01/27 09:51:47;;;;;;;21.05;12.77;;;0.60;99.90;;;;;;5060165;28;20040;-79
2021/01/27 09:54:14;;;;;;;22.05;13.43;;;0.60;99.90;;;;;;5072627;28;20466;-78
2021/01/27 09:56:40;;;;;;;23.83;11.88;;;0.60;99.90;;;;;;5070364;28;20051;-78
2021/01/27 09:59:07;;;;;;;27.55;13.75;;;0.60;99.90;;;;;;5072694;28;20028;-79
2021/01/27 10:01:45;;;;;;;21.55;12.15;;;0.60;99.90;;;;;;5088861;28;20028;-78
2021/01/27 10:04:15;;;;;;;25.30;11.95;;;0.60;99.90;;;;;;5082591;28;20033;-78
2021/01/27 10:06:51;;;;;;;20.08;11.90;;;0.70;99.90;;;;;;5073215;28;20036;-78
2021/01/27 10:09:27;;;;;;;21.13;12.38;;;0.60;99.90;;;;;;5072393;28;20038;-78
2021/01/27 10:12:25;;;;;;;18.80;12.18;;;0.60;99.90;;;;;;5072961;28;20036;-78
2021/01/27 10:15:09;;;;;;;18.27;11.00;;;0.70;99.90;;;;;;5055753;28;20529;-79
2021/01/27 10:17:36;;;;;;;18.13;11.77;;;0.70;99.90;;;;;;5071760;28;20035;-78
2021/01/27 10:20:23;;;;;;;18.38;10.68;;;0.80;99.90;;;;;;5072746;28;20028;-79
2021/01/27 10:22:59;;;;;;;18.23;11.70;;;0.70;99.90;;;;;;5072731;28;20036;-79
2021/01/27 10:25:34;;;;;;;18.83;11.35;;;0.70;99.90;;;;;;5071862;28;20474;-79
2021/01/27 10:28:11;;;;;;;22.35;11.50;;;0.70;99.90;;;;;;5079141;28;20039;-78
2021/01/27 10:30:45;;;;;;;21.58;13.35;;;0.70;99.90;;;;;;5077444;28;20039;-78
2021/01/27 10:33:42;;;;;;;19.90;12.40;;;0.80;99.90;;;;;;5086204;28;20052;-78
2021/01/27 10:36:25;;;;;;;23.63;12.13;;;0.80;99.90;;;;;;5088284;28;20032;-78
2021/01/27 10:39:10;;;;;;;17.52;10.82;;;0.80;99.90;;;;;;5082857;28;20036;-78
2021/01/27 10:41:37;;;;;;;17.63;11.52;;;0.80;99.90;;;;;;5073425;28;20028;-78
2021/01/27 10:44:30;;;;;;;15.45;10.13;;;0.90;99.90;;;;;;5071791;28;20039;-78
2021/01/27 10:47:21;;;;;;;17.63;10.98;;;0.90;99.90;;;;;;5071982;28;20486;-78
2021/01/27 10:49:49;;;;;;;10.32;7.63;;;0.90;99.90;;;;;;5071829;28;20037;-80
2021/01/27 10:52:27;;;;;;;14.68;10.02;;;0.90;99.90;;;;;;5071654;28;20135;-77
2021/01/27 10:55:02;;;;;;;14.32;10.70;;;1.00;99.90;;;;;;5072081;28;20032;-79
2021/01/27 10:57:28;;;;;;;15.23;9.90;;;1.00;99.90;;;;;;5085059;28;20032;-78
2021/01/27 10:59:56;;;;;;;15.43;9.70;;;1.00;99.90;;;;;;5072228;28;20032;-78
2021/01/27 11:02:23;;;;;;;15.13;9.88;;;1.10;99.90;;;;;;5088478;28;20420;-78
2021/01/27 11:04:49;;;;;;;14.40;9.57;;;1.20;99.90;;;;;;5071763;28;20094;-78
2021/01/27 11:07:16;;;;;;;13.93;10.27;;;1.20;99.90;;;;;;5071557;28;20032;-78
2021/01/27 11:09:45;;;;;;;14.00;9.77;;;1.20;99.90;;;;;;5080389;28;20036;-78
2021/01/27 11:12:11;;;;;;;13.70;9.05;;;1.30;99.90;;;;;;5075290;28;20025;-77
2021/01/27 11:14:38;;;;;;;17.50;11.32;;;1.30;99.90;;;;;;5071401;28;20029;-77
2021/01/27 11:17:04;;;;;;;16.45;10.25;;;1.30;99.90;;;;;;5090581;28;20043;-77
2021/01/27 11:19:30;;;;;;;15.60;10.48;;;1.20;99.90;;;;;;5072944;28;20036;-79
2021/01/27 11:21:56;;;;;;;15.20;9.35;;;1.20;99.90;;;;;;5071986;28;20025;-79
2021/01/27 11:24:23;;;;;;;15.73;10.52;;;1.20;99.90;;;;;;5071130;28;20045;-79
2021/01/27 11:26:49;;;;;;;15.15;10.07;;;1.20;99.90;;;;;;5071815;28;20476;-78
2021/01/27 11:29:15;;;;;;;12.73;8.95;;;1.20;99.90;;;;;;5070280;28;20032;-76
2021/01/27 11:31:41;;;;;;;13.90;9.68;;;1.20;99.90;;;;;;5071385;28;20146;-79
2021/01/27 11:34:08;;;;;;;12.52;8.70;;;1.20;99.90;;;;;;5071971;28;20036;-78
2021/01/27 11:36:34;;;;;;;13.13;9.32;;;1.20;99.90;;;;;;5074934;28;20024;-78
2021/01/27 11:39:00;;;;;;;12.25;9.18;;;1.20;99.90;;;;;;5089945;28;20044;-77
2021/01/27 11:41:27;;;;;;;10.93;8.75;;;1.30;99.90;;;;;;5071472;28;20035;-77
2021/01/27 11:43:56;;;;;;;14.82;10.05;;;1.30;99.90;;;;;;5079370;28;20503;-77
2021/01/27 11:46:22;;;;;;;14.25;9.80;;;1.30;99.90;;;;;;5072271;28;20040;-77
2021/01/27 11:48:49;;;;;;;11.95;9.07;;;1.20;99.90;;;;;;5071646;28;20036;-78
2021/01/27 11:51:16;;;;;;;13.75;10.10;;;1.20;99.90;;;;;;5071466;28;20029;-78
2021/01/27 11:53:42;;;;;;;14.75;10.07;;;1.30;99.90;;;;;;5071328;28;20048;-77
2021/01/27 11:56:10;;;;;;;15.30;10.93;;;1.30;99.90;;;;;;5088652;28;20081;-77
2021/01/27 11:58:37;;;;;;;13.30;10.05;;;1.30;99.90;;;;;;5080898;28;20485;-77
2021/01/27 12:01:04;;;;;;;14.23;8.90;;;1.30;99.90;;;;;;5077217;28;20036;-78
2021/01/27 12:03:32;;;;;;;15.32;10.55;;;1.40;99.90;;;;;;5086619;28;20040;-78
2021/01/27 12:05:58;;;;;;;15.77;10.52;;;1.50;99.90;;;;;;5090736;28;20035;-77
2021/01/27 12:08:25;;;;;;;20.00;11.55;;;1.60;99.90;;;;;;5080972;28;20113;-77
2021/01/27 12:10:51;;;;;;;17.08;12.00;;;1.80;99.90;;;;;;5083606;28;20051;-78
2021/01/27 12:13:18;;;;;;;16.50;9.57;;;1.80;99.90;;;;;;5076028;28;20025;-76
2021/01/27 12:15:45;;;;;;;11.80;8.55;;;1.70;99.90;;;;;;5074646;28;20478;-76
2021/01/27 12:18:13;;;;;;;11.93;9.13;;;1.60;99.90;;;;;;5075678;28;20048;-77
2021/01/27 12:20:42;;;;;;;11.88;9.13;;;1.60;99.90;;;;;;5093242;28;20385;-79
2021/01/27 12:23:09;;;;;;;11.10;7.68;;;1.50;99.90;;;;;;5074462;28;20029;-78
2021/01/27 12:25:35;;;;;;;11.30;7.90;;;1.40;99.90;;;;;;5073916;28;20033;-76
2021/01/27 12:28:02;;;;;;;20.13;12.63;;;1.40;99.90;;;;;;5074155;28;20041;-77
2021/01/27 12:30:28;;;;;;;76.50;35.00;;;1.40;99.90;;;;;;5089187;28;20041;-76
2021/01/27 12:32:55;;;;;;;102.93;50.45;;;1.40;99.90;;;;;;5074237;28;20486;-76
2021/01/27 12:35:22;;;;;;;80.53;38.42;;;1.40;99.90;;;;;;5073587;28;20051;-76
2021/01/27 12:37:49;;;;;;;50.53;25.10;;;1.40;99.90;;;;;;5073871;28;20049;-77
2021/01/27 12:40:18;;;;;;;37.60;18.80;;;1.40;99.90;;;;;;5085588;28;20374;-78
2021/01/27 12:42:44;;;;;;;99.80;40.05;;;1.30;99.90;;;;;;5093910;28;20028;-76
2021/01/27 12:45:14;;;;;;;242.70;101.47;;;1.30;99.90;;;;;;5073709;28;20040;-78
2021/01/27 12:47:41;;;;;;;72.93;34.40;;;1.30;99.90;;;;;;5087988;28;20035;-78
2021/01/27 12:50:08;;;;;;;71.70;34.25;;;1.30;99.90;;;;;;5080088;28;20067;-78
2021/01/27 12:52:35;;;;;;;86.60;39.47;;;1.30;99.90;;;;;;5073292;28;20032;-78
2021/01/27 12:55:02;;;;;;;61.58;30.45;;;1.30;99.90;;;;;;5073790;28;20025;-79
2021/01/27 12:57:29;;;;;;;55.85;29.08;;;1.30;99.90;;;;;;5073308;28;20040;-78
2021/01/27 12:59:55;;;;;;;28.27;17.48;;;1.40;99.90;;;;;;5074855;28;20035;-79
2021/01/27 13:02:21;;;;;;;52.10;29.52;;;1.30;99.90;;;;;;5073181;28;20055;-77
2021/01/27 13:04:48;;;;;;;86.00;42.00;;;1.40;99.90;;;;;;5076667;28;20032;-78
2021/01/27 13:07:14;;;;;;;51.08;29.20;;;1.40;99.90;;;;;;5083236;28;20436;-78
2021/01/27 13:09:41;;;;;;;43.40;23.38;;;1.40;99.90;;;;;;5075114;28;20040;-78
2021/01/27 13:12:07;;;;;;;22.45;14.13;;;1.40;99.90;;;;;;5073580;28;20032;-79
2021/01/27 13:14:33;;;;;;;37.22;22.52;;;1.40;99.90;;;;;;5073210;28;20033;-79
2021/01/27 13:17:00;;;;;;;26.30;16.02;;;1.50;99.90;;;;;;5073323;28;20028;-79
2021/01/27 13:19:27;;;;;;;17.50;10.98;;;1.40;99.90;;;;;;5073269;28;20033;-79